sensor_id;sensor_type;location;lat;lon;timestamp;P1;durP1;ratioP1;P2;durP2;ratioP2
16354;SDS011;8287;51.644;8.494;2023-06-26T00:02:24;4.90;;;4.45;;
16354;SDS011;8287;51.644;8.494;2023-06-26T00:04:51;6.53;;;4.60;;
16354;SDS011;8287;51.644;8.494;2023-06-26T00:07:18;4.63;;;3.97;;
16354;SDS011;8287;51.644;8.494;2023-06-26T00:09:45;4.40;;;4.00;;
16354;SDS011;8287;51.644;8.494;2023-06-26T00:12:12;7.00;;;4.43;;
16354;SDS011;8287;51.644;8.494;2023-06-26T00:14:39;5.47;;;4.22;;
16354;SDS011;8287;51.644;8.494;2023-06-26T00:17:06;7.20;;;5.00;;
16354;SDS011;8287;51.644;8.494;2023-06-26T00:19:33;4.55;;;4.15;;
16354;SDS011;8287;51.644;8.494;2023-06-26T00:21:59;5.57;;;3.70;;
16354;SDS011;8287;51.644;8.494;2023-06-26T00:24:26;5.55;;;4.10;;
16354;SDS011;8287;51.644;8.494;2023-06-26T00:26:52;6.72;;;4.20;;
16354;SDS011;8287;51.644;8.494;2023-06-26T00:29:19;4.90;;;4.35;;
16354;SDS011;8287;51.644;8.494;2023-06-26T00:31:47;5.32;;;3.83;;
16354;SDS011;8287;51.644;8.494;2023-06-26T00:34:13;5.97;;;3.75;;
16354;SDS011;8287;51.644;8.494;2023-06-26T00:36:41;6.20;;;3.88;;
16354;SDS011;8287;51.644;8.494;2023-06-26T00:39:08;7.80;;;4.32;;
16354;SDS011;8287;51.644;8.494;2023-06-26T00:41:35;7.40;;;4.88;;
16354;SDS011;8287;51.644;8.494;2023-06-26T00:44:02;4.07;;;3.67;;
16354;SDS011;8287;51.644;8.494;2023-06-26T00:46:29;5.88;;;4.50;;
16354;SDS011;8287;51.644;8.494;2023-06-26T00:48:58;5.38;;;4.45;;
16354;SDS011;8287;51.644;8.494;2023-06-26T00:51:25;5.00;;;4.50;;
16354;SDS011;8287;51.644;8.494;2023-06-26T00:53:52;7.25;;;4.72;;
16354;SDS011;8287;51.644;8.494;2023-06-26T00:56:19;6.43;;;5.00;;
16354;SDS011;8287;51.644;8.494;2023-06-26T00:58:46;5.18;;;3.97;;
16354;SDS011;8287;51.644;8.494;2023-06-26T01:01:13;5.85;;;5.13;;
16354;SDS011;8287;51.644;8.494;2023-06-26T01:03:42;5.57;;;4.82;;
16354;SDS011;8287;51.644;8.494;2023-06-26T01:06:13;7.10;;;4.40;;
16354;SDS011;8287;51.644;8.494;2023-06-26T01:08:41;6.68;;;3.63;;
16354;SDS011;8287;51.644;8.494;2023-06-26T01:11:08;10.15;;;4.38;;
16354;SDS011;8287;51.644;8.494;2023-06-26T01:13:35;5.30;;;4.60;;
16354;SDS011;8287;51.644;8.494;2023-06-26T01:16:03;5.43;;;4.35;;
16354;SDS011;8287;51.644;8.494;2023-06-26T01:18:30;4.28;;;3.88;;
16354;SDS011;8287;51.644;8.494;2023-06-26T01:20:58;5.45;;;3.60;;
16354;SDS011;8287;51.644;8.494;2023-06-26T01:23:29;6.07;;;4.10;;
16354;SDS011;8287;51.644;8.494;2023-06-26T01:26:12;5.32;;;4.00;;
16354;SDS011;8287;51.644;8.494;2023-06-26T01:28:43;4.68;;;4.28;;
16354;SDS011;8287;51.644;8.494;2023-06-26T01:31:10;5.32;;;4.25;;
16354;SDS011;8287;51.644;8.494;2023-06-26T01:33:38;4.10;;;3.70;;
16354;SDS011;8287;51.644;8.494;2023-06-26T01:36:06;6.10;;;4.32;;
16354;SDS011;8287;51.644;8.494;2023-06-26T01:38:33;5.53;;;4.10;;
16354;SDS011;8287;51.644;8.494;2023-06-26T01:41:00;4.80;;;4.30;;
16354;SDS011;8287;51.644;8.494;2023-06-26T01:43:31;5.80;;;4.20;;
16354;SDS011;8287;51.644;8.494;2023-06-26T01:46:05;4.65;;;3.88;;
16354;SDS011;8287;51.644;8.494;2023-06-26T01:48:38;5.18;;;4.68;;
16354;SDS011;8287;51.644;8.494;2023-06-26T01:51:12;5.63;;;4.53;;
16354;SDS011;8287;51.644;8.494;2023-06-26T01:53:41;4.90;;;4.40;;
16354;SDS011;8287;51.644;8.494;2023-06-26T01:56:13;5.10;;;4.28;;
16354;SDS011;8287;51.644;8.494;2023-06-26T01:58:45;4.68;;;4.28;;
16354;SDS011;8287;51.644;8.494;2023-06-26T02:01:13;4.28;;;3.88;;
16354;SDS011;8287;51.644;8.494;2023-06-26T02:03:40;5.18;;;4.30;;
16354;SDS011;8287;51.644;8.494;2023-06-26T02:06:06;6.22;;;4.70;;
16354;SDS011;8287;51.644;8.494;2023-06-26T02:08:33;4.18;;;3.78;;
16354;SDS011;8287;51.644;8.494;2023-06-26T02:11:00;4.68;;;4.15;;
16354;SDS011;8287;51.644;8.494;2023-06-26T02:13:26;5.32;;;4.78;;
16354;SDS011;8287;51.644;8.494;2023-06-26T02:15:54;5.07;;;3.83;;
16354;SDS011;8287;51.644;8.494;2023-06-26T02:18:21;5.38;;;4.63;;
16354;SDS011;8287;51.644;8.494;2023-06-26T02:20:48;4.78;;;4.38;;
16354;SDS011;8287;51.644;8.494;2023-06-26T02:23:14;5.00;;;4.47;;
16354;SDS011;8287;51.644;8.494;2023-06-26T02:25:41;5.85;;;4.82;;
16354;SDS011;8287;51.644;8.494;2023-06-26T02:28:08;6.30;;;4.53;;
16354;SDS011;8287;51.644;8.494;2023-06-26T02:30:34;5.55;;;3.88;;
16354;SDS011;8287;51.644;8.494;2023-06-26T02:33:02;4.70;;;4.22;;
16354;SDS011;8287;51.644;8.494;2023-06-26T02:35:29;6.95;;;4.20;;
16354;SDS011;8287;51.644;8.494;2023-06-26T02:37:55;4.80;;;4.32;;
16354;SDS011;8287;51.644;8.494;2023-06-26T02:40:22;4.90;;;4.35;;
16354;SDS011;8287;51.644;8.494;2023-06-26T02:42:48;4.93;;;4.10;;
16354;SDS011;8287;51.644;8.494;2023-06-26T02:45:15;4.97;;;4.47;;
16354;SDS011;8287;51.644;8.494;2023-06-26T02:47:42;4.88;;;4.38;;
16354;SDS011;8287;51.644;8.494;2023-06-26T02:50:10;4.68;;;4.28;;
16354;SDS011;8287;51.644;8.494;2023-06-26T02:52:36;4.80;;;4.40;;
16354;SDS011;8287;51.644;8.494;2023-06-26T02:55:03;5.40;;;4.20;;
16354;SDS011;8287;51.644;8.494;2023-06-26T02:57:31;4.10;;;3.70;;
16354;SDS011;8287;51.644;8.494;2023-06-26T02:59:57;4.75;;;4.15;;
16354;SDS011;8287;51.644;8.494;2023-06-26T03:02:24;4.93;;;4.43;;
16354;SDS011;8287;51.644;8.494;2023-06-26T03:04:51;4.38;;;3.97;;
16354;SDS011;8287;51.644;8.494;2023-06-26T03:07:19;4.88;;;4.38;;
16354;SDS011;8287;51.644;8.494;2023-06-26T03:09:45;5.43;;;4.78;;
16354;SDS011;8287;51.644;8.494;2023-06-26T03:12:12;5.30;;;4.07;;
16354;SDS011;8287;51.644;8.494;2023-06-26T03:14:38;5.15;;;4.22;;
16354;SDS011;8287;51.644;8.494;2023-06-26T03:17:05;6.95;;;4.22;;
16354;SDS011;8287;51.644;8.494;2023-06-26T03:19:32;5.50;;;4.53;;
16354;SDS011;8287;51.644;8.494;2023-06-26T03:21:59;4.13;;;3.58;;
16354;SDS011;8287;51.644;8.494;2023-06-26T03:24:27;4.60;;;4.10;;
16354;SDS011;8287;51.644;8.494;2023-06-26T03:26:53;4.93;;;4.40;;
16354;SDS011;8287;51.644;8.494;2023-06-26T03:29:20;5.25;;;4.47;;
16354;SDS011;8287;51.644;8.494;2023-06-26T03:31:46;5.97;;;4.13;;
16354;SDS011;8287;51.644;8.494;2023-06-26T03:34:13;5.65;;;4.70;;
16354;SDS011;8287;51.644;8.494;2023-06-26T03:36:39;8.00;;;4.32;;
16354;SDS011;8287;51.644;8.494;2023-06-26T03:39:06;6.78;;;4.05;;
16354;SDS011;8287;51.644;8.494;2023-06-26T03:41:34;4.55;;;3.88;;
16354;SDS011;8287;51.644;8.494;2023-06-26T03:44:00;3.90;;;3.60;;
16354;SDS011;8287;51.644;8.494;2023-06-26T03:46:28;4.22;;;3.83;;
16354;SDS011;8287;51.644;8.494;2023-06-26T03:48:55;3.97;;;3.67;;
16354;SDS011;8287;51.644;8.494;2023-06-26T03:51:21;4.43;;;4.03;;
16354;SDS011;8287;51.644;8.494;2023-06-26T03:53:48;5.05;;;4.00;;
16354;SDS011;8287;51.644;8.494;2023-06-26T03:56:14;4.72;;;4.22;;
16354;SDS011;8287;51.644;8.494;2023-06-26T03:58:42;9.20;;;4.28;;
16354;SDS011;8287;51.644;8.494;2023-06-26T04:01:09;4.80;;;4.22;;
16354;SDS011;8287;51.644;8.494;2023-06-26T04:03:36;7.18;;;3.92;;
16354;SDS011;8287;51.644;8.494;2023-06-26T04:06:02;3.65;;;3.33;;
16354;SDS011;8287;51.644;8.494;2023-06-26T04:08:29;7.70;;;5.38;;
16354;SDS011;8287;51.644;8.494;2023-06-26T04:10:56;5.30;;;4.03;;
16354;SDS011;8287;51.644;8.494;2023-06-26T04:13:23;5.38;;;3.90;;
16354;SDS011;8287;51.644;8.494;2023-06-26T04:15:51;5.80;;;3.80;;
16354;SDS011;8287;51.644;8.494;2023-06-26T04:18:18;4.20;;;3.80;;
16354;SDS011;8287;51.644;8.494;2023-06-26T04:23:31;4.25;;;3.72;;
16354;SDS011;8287;51.644;8.494;2023-06-26T04:25:57;5.95;;;4.28;;
16354;SDS011;8287;51.644;8.494;2023-06-26T04:28:24;4.82;;;4.32;;
16354;SDS011;8287;51.644;8.494;2023-06-26T04:30:52;4.25;;;3.85;;
16354;SDS011;8287;51.644;8.494;2023-06-26T04:33:18;5.70;;;3.55;;
16354;SDS011;8287;51.644;8.494;2023-06-26T04:35:45;4.03;;;3.38;;
16354;SDS011;8287;51.644;8.494;2023-06-26T04:38:13;5.60;;;4.05;;
16354;SDS011;8287;51.644;8.494;2023-06-26T04:40:40;5.40;;;4.30;;
16354;SDS011;8287;51.644;8.494;2023-06-26T04:43:07;8.07;;;4.20;;
16354;SDS011;8287;51.644;8.494;2023-06-26T04:45:33;4.22;;;3.35;;
16354;SDS011;8287;51.644;8.494;2023-06-26T04:48:01;4.53;;;4.13;;
16354;SDS011;8287;51.644;8.494;2023-06-26T04:50:28;3.80;;;3.33;;
16354;SDS011;8287;51.644;8.494;2023-06-26T04:52:55;3.50;;;3.20;;
16354;SDS011;8287;51.644;8.494;2023-06-26T04:55:23;4.28;;;3.75;;
16354;SDS011;8287;51.644;8.494;2023-06-26T04:57:50;3.35;;;3.05;;
16354;SDS011;8287;51.644;8.494;2023-06-26T05:00:17;5.80;;;5.18;;
16354;SDS011;8287;51.644;8.494;2023-06-26T05:02:44;4.03;;;3.63;;
16354;SDS011;8287;51.644;8.494;2023-06-26T05:05:13;3.70;;;3.22;;
16354;SDS011;8287;51.644;8.494;2023-06-26T05:07:40;4.32;;;3.70;;
16354;SDS011;8287;51.644;8.494;2023-06-26T05:10:07;4.43;;;3.72;;
16354;SDS011;8287;51.644;8.494;2023-06-26T05:12:34;5.15;;;3.83;;
16354;SDS011;8287;51.644;8.494;2023-06-26T05:15:01;4.45;;;3.70;;
16354;SDS011;8287;51.644;8.494;2023-06-26T05:17:28;4.03;;;3.38;;
16354;SDS011;8287;51.644;8.494;2023-06-26T05:19:54;7.68;;;3.97;;
16354;SDS011;8287;51.644;8.494;2023-06-26T05:22:22;4.85;;;4.13;;
16354;SDS011;8287;51.644;8.494;2023-06-26T05:24:49;4.47;;;4.07;;
16354;SDS011;8287;51.644;8.494;2023-06-26T05:27:21;4.85;;;4.28;;
16354;SDS011;8287;51.644;8.494;2023-06-26T05:29:48;7.68;;;3.92;;
16354;SDS011;8287;51.644;8.494;2023-06-26T05:32:15;4.60;;;3.90;;
16354;SDS011;8287;51.644;8.494;2023-06-26T05:34:43;4.30;;;3.90;;
16354;SDS011;8287;51.644;8.494;2023-06-26T05:37:13;3.83;;;3.42;;
16354;SDS011;8287;51.644;8.494;2023-06-26T05:39:45;4.68;;;4.28;;
16354;SDS011;8287;51.644;8.494;2023-06-26T05:42:13;4.43;;;4.03;;
16354;SDS011;8287;51.644;8.494;2023-06-26T05:44:40;5.00;;;4.00;;
16354;SDS011;8287;51.644;8.494;2023-06-26T05:47:07;4.00;;;3.60;;
16354;SDS011;8287;51.644;8.494;2023-06-26T05:49:33;4.53;;;3.90;;
16354;SDS011;8287;51.644;8.494;2023-06-26T05:52:01;4.80;;;3.67;;
16354;SDS011;8287;51.644;8.494;2023-06-26T05:54:28;3.97;;;3.67;;
16354;SDS011;8287;51.644;8.494;2023-06-26T05:56:57;4.57;;;3.75;;
16354;SDS011;8287;51.644;8.494;2023-06-26T05:59:24;8.95;;;4.97;;
16354;SDS011;8287;51.644;8.494;2023-06-26T06:01:52;4.65;;;3.90;;
16354;SDS011;8287;51.644;8.494;2023-06-26T06:04:19;7.65;;;4.40;;
16354;SDS011;8287;51.644;8.494;2023-06-26T06:06:46;7.60;;;5.03;;
16354;SDS011;8287;51.644;8.494;2023-06-26T06:09:12;5.85;;;4.82;;
16354;SDS011;8287;51.644;8.494;2023-06-26T06:11:39;4.28;;;3.88;;
16354;SDS011;8287;51.644;8.494;2023-06-26T06:14:07;4.97;;;4.43;;
16354;SDS011;8287;51.644;8.494;2023-06-26T06:16:33;5.20;;;4.70;;
16354;SDS011;8287;51.644;8.494;2023-06-26T06:19:00;5.50;;;4.93;;
16354;SDS011;8287;51.644;8.494;2023-06-26T06:21:28;7.07;;;4.38;;
16354;SDS011;8287;51.644;8.494;2023-06-26T06:23:55;10.52;;;4.80;;
16354;SDS011;8287;51.644;8.494;2023-06-26T06:26:21;5.57;;;4.97;;
16354;SDS011;8287;51.644;8.494;2023-06-26T06:28:48;8.80;;;7.45;;
16354;SDS011;8287;51.644;8.494;2023-06-26T06:31:16;8.98;;;5.55;;
16354;SDS011;8287;51.644;8.494;2023-06-26T06:33:43;7.07;;;5.25;;
16354;SDS011;8287;51.644;8.494;2023-06-26T06:36:09;5.47;;;4.82;;
16354;SDS011;8287;51.644;8.494;2023-06-26T06:38:36;5.53;;;4.57;;
16354;SDS011;8287;51.644;8.494;2023-06-26T06:41:03;9.25;;;5.72;;
16354;SDS011;8287;51.644;8.494;2023-06-26T06:43:29;4.88;;;4.35;;
16354;SDS011;8287;51.644;8.494;2023-06-26T06:45:56;5.30;;;4.80;;
16354;SDS011;8287;51.644;8.494;2023-06-26T06:48:24;6.63;;;5.22;;
16354;SDS011;8287;51.644;8.494;2023-06-26T06:50:51;7.40;;;4.82;;
16354;SDS011;8287;51.644;8.494;2023-06-26T06:53:17;5.15;;;4.65;;
16354;SDS011;8287;51.644;8.494;2023-06-26T06:55:45;5.60;;;4.72;;
16354;SDS011;8287;51.644;8.494;2023-06-26T06:58:12;4.68;;;4.10;;
16354;SDS011;8287;51.644;8.494;2023-06-26T07:00:39;5.25;;;4.75;;
16354;SDS011;8287;51.644;8.494;2023-06-26T07:03:05;7.97;;;5.20;;
16354;SDS011;8287;51.644;8.494;2023-06-26T07:05:33;4.88;;;4.22;;
16354;SDS011;8287;51.644;8.494;2023-06-26T07:08:00;9.18;;;4.55;;
16354;SDS011;8287;51.644;8.494;2023-06-26T07:10:26;8.23;;;5.28;;
16354;SDS011;8287;51.644;8.494;2023-06-26T07:12:53;6.78;;;4.82;;
16354;SDS011;8287;51.644;8.494;2023-06-26T07:15:20;4.90;;;3.92;;
16354;SDS011;8287;51.644;8.494;2023-06-26T07:17:46;5.93;;;4.90;;
16354;SDS011;8287;51.644;8.494;2023-06-26T07:20:13;6.38;;;5.13;;
16354;SDS011;8287;51.644;8.494;2023-06-26T07:22:42;8.20;;;6.40;;
16354;SDS011;8287;51.644;8.494;2023-06-26T07:25:10;10.55;;;5.32;;
16354;SDS011;8287;51.644;8.494;2023-06-26T07:27:37;6.63;;;5.90;;
16354;SDS011;8287;51.644;8.494;2023-06-26T07:30:05;7.70;;;5.80;;
16354;SDS011;8287;51.644;8.494;2023-06-26T07:32:34;7.40;;;5.72;;
16354;SDS011;8287;51.644;8.494;2023-06-26T07:35:00;6.45;;;5.65;;
16354;SDS011;8287;51.644;8.494;2023-06-26T07:37:27;7.40;;;5.65;;
16354;SDS011;8287;51.644;8.494;2023-06-26T07:39:55;8.43;;;5.82;;
16354;SDS011;8287;51.644;8.494;2023-06-26T07:42:22;8.05;;;5.50;;
16354;SDS011;8287;51.644;8.494;2023-06-26T07:44:48;6.07;;;5.43;;
16354;SDS011;8287;51.644;8.494;2023-06-26T07:47:15;6.90;;;5.55;;
16354;SDS011;8287;51.644;8.494;2023-06-26T07:49:41;5.80;;;5.07;;
16354;SDS011;8287;51.644;8.494;2023-06-26T07:52:08;9.10;;;6.50;;
16354;SDS011;8287;51.644;8.494;2023-06-26T07:54:36;11.43;;;5.78;;
16354;SDS011;8287;51.644;8.494;2023-06-26T07:57:04;9.32;;;5.88;;
16354;SDS011;8287;51.644;8.494;2023-06-26T07:59:32;7.25;;;5.22;;
16354;SDS011;8287;51.644;8.494;2023-06-26T08:01:59;10.43;;;5.88;;
16354;SDS011;8287;51.644;8.494;2023-06-26T08:04:27;6.63;;;5.93;;
16354;SDS011;8287;51.644;8.494;2023-06-26T08:06:56;9.80;;;6.55;;
16354;SDS011;8287;51.644;8.494;2023-06-26T08:09:24;7.40;;;5.43;;
16354;SDS011;8287;51.644;8.494;2023-06-26T08:11:53;6.57;;;5.38;;
16354;SDS011;8287;51.644;8.494;2023-06-26T08:14:21;7.25;;;6.35;;
16354;SDS011;8287;51.644;8.494;2023-06-26T08:16:48;6.97;;;5.93;;
16354;SDS011;8287;51.644;8.494;2023-06-26T08:19:15;7.05;;;5.45;;
16354;SDS011;8287;51.644;8.494;2023-06-26T08:21:43;9.48;;;6.70;;
16354;SDS011;8287;51.644;8.494;2023-06-26T08:24:10;10.55;;;6.82;;
16354;SDS011;8287;51.644;8.494;2023-06-26T08:26:38;9.10;;;5.88;;
16354;SDS011;8287;51.644;8.494;2023-06-26T08:29:05;14.52;;;6.53;;
16354;SDS011;8287;51.644;8.494;2023-06-26T08:31:35;8.70;;;6.38;;
16354;SDS011;8287;51.644;8.494;2023-06-26T08:34:02;13.77;;;7.20;;
16354;SDS011;8287;51.644;8.494;2023-06-26T08:36:29;7.25;;;5.60;;
16354;SDS011;8287;51.644;8.494;2023-06-26T08:38:56;11.15;;;7.75;;
16354;SDS011;8287;51.644;8.494;2023-06-26T08:41:22;8.13;;;6.72;;
16354;SDS011;8287;51.644;8.494;2023-06-26T08:43:49;11.07;;;7.75;;
16354;SDS011;8287;51.644;8.494;2023-06-26T08:46:17;10.95;;;7.97;;
16354;SDS011;8287;51.644;8.494;2023-06-26T08:48:49;11.38;;;7.82;;
16354;SDS011;8287;51.644;8.494;2023-06-26T08:51:21;8.90;;;6.40;;
16354;SDS011;8287;51.644;8.494;2023-06-26T08:53:52;9.40;;;6.82;;
16354;SDS011;8287;51.644;8.494;2023-06-26T08:56:22;9.18;;;7.10;;
16354;SDS011;8287;51.644;8.494;2023-06-26T08:58:50;9.00;;;6.78;;
16354;SDS011;8287;51.644;8.494;2023-06-26T09:01:18;10.05;;;7.85;;
16354;SDS011;8287;51.644;8.494;2023-06-26T09:03:46;9.93;;;8.52;;
16354;SDS011;8287;51.644;8.494;2023-06-26T09:06:12;9.85;;;7.47;;
16354;SDS011;8287;51.644;8.494;2023-06-26T09:08:39;11.75;;;7.78;;
16354;SDS011;8287;51.644;8.494;2023-06-26T09:11:05;11.65;;;7.88;;
16354;SDS011;8287;51.644;8.494;2023-06-26T09:13:32;10.38;;;7.55;;
16354;SDS011;8287;51.644;8.494;2023-06-26T09:15:59;11.32;;;7.15;;
16354;SDS011;8287;51.644;8.494;2023-06-26T09:18:33;10.88;;;6.90;;
16354;SDS011;8287;51.644;8.494;2023-06-26T09:21:03;8.60;;;6.90;;
16354;SDS011;8287;51.644;8.494;2023-06-26T09:23:33;10.63;;;5.70;;
16354;SDS011;8287;51.644;8.494;2023-06-26T09:26:01;11.85;;;7.90;;
16354;SDS011;8287;51.644;8.494;2023-06-26T09:28:29;9.93;;;6.95;;
16354;SDS011;8287;51.644;8.494;2023-06-26T09:30:59;12.30;;;7.82;;
16354;SDS011;8287;51.644;8.494;2023-06-26T09:33:27;10.55;;;7.40;;
16354;SDS011;8287;51.644;8.494;2023-06-26T09:35:53;8.75;;;6.68;;
16354;SDS011;8287;51.644;8.494;2023-06-26T09:38:21;11.20;;;7.43;;
16354;SDS011;8287;51.644;8.494;2023-06-26T09:40:48;13.07;;;7.35;;
16354;SDS011;8287;51.644;8.494;2023-06-26T09:43:15;8.82;;;6.80;;
16354;SDS011;8287;51.644;8.494;2023-06-26T09:45:41;12.50;;;6.85;;
16354;SDS011;8287;51.644;8.494;2023-06-26T09:48:08;11.15;;;7.05;;
16354;SDS011;8287;51.644;8.494;2023-06-26T09:50:36;10.73;;;7.97;;
16354;SDS011;8287;51.644;8.494;2023-06-26T09:53:08;8.50;;;6.28;;
16354;SDS011;8287;51.644;8.494;2023-06-26T09:55:37;9.10;;;6.85;;
16354;SDS011;8287;51.644;8.494;2023-06-26T09:58:03;9.13;;;7.13;;
16354;SDS011;8287;51.644;8.494;2023-06-26T10:00:30;11.23;;;7.30;;
16354;SDS011;8287;51.644;8.494;2023-06-26T10:02:57;7.68;;;6.05;;
16354;SDS011;8287;51.644;8.494;2023-06-26T10:05:24;12.18;;;7.13;;
16354;SDS011;8287;51.644;8.494;2023-06-26T10:07:51;8.80;;;6.68;;
16354;SDS011;8287;51.644;8.494;2023-06-26T10:10:18;12.93;;;7.00;;
16354;SDS011;8287;51.644;8.494;2023-06-26T10:12:48;10.40;;;6.72;;
16354;SDS011;8287;51.644;8.494;2023-06-26T10:15:17;8.68;;;6.22;;
16354;SDS011;8287;51.644;8.494;2023-06-26T10:17:46;10.93;;;6.07;;
16354;SDS011;8287;51.644;8.494;2023-06-26T10:20:14;8.65;;;6.25;;
16354;SDS011;8287;51.644;8.494;2023-06-26T10:22:43;11.98;;;5.75;;
16354;SDS011;8287;51.644;8.494;2023-06-26T10:25:12;8.07;;;5.97;;
16354;SDS011;8287;51.644;8.494;2023-06-26T10:27:43;9.98;;;5.20;;
16354;SDS011;8287;51.644;8.494;2023-06-26T10:30:16;11.48;;;6.05;;
16354;SDS011;8287;51.644;8.494;2023-06-26T10:32:47;5.28;;;4.43;;
16354;SDS011;8287;51.644;8.494;2023-06-26T10:35:14;10.38;;;4.95;;
16354;SDS011;8287;51.644;8.494;2023-06-26T10:37:41;11.00;;;5.60;;
16354;SDS011;8287;51.644;8.494;2023-06-26T10:40:09;11.30;;;5.55;;
16354;SDS011;8287;51.644;8.494;2023-06-26T10:42:37;10.68;;;5.40;;
16354;SDS011;8287;51.644;8.494;2023-06-26T10:45:08;8.07;;;5.95;;
16354;SDS011;8287;51.644;8.494;2023-06-26T10:47:38;8.25;;;5.38;;
16354;SDS011;8287;51.644;8.494;2023-06-26T10:50:19;15.73;;;6.50;;
16354;SDS011;8287;51.644;8.494;2023-06-26T10:52:54;6.72;;;4.90;;
16354;SDS011;8287;51.644;8.494;2023-06-26T10:55:33;10.43;;;5.20;;
16354;SDS011;8287;51.644;8.494;2023-06-26T10:58:00;6.93;;;5.38;;
16354;SDS011;8287;51.644;8.494;2023-06-26T11:00:28;7.93;;;5.38;;
16354;SDS011;8287;51.644;8.494;2023-06-26T11:02:56;12.73;;;6.25;;
16354;SDS011;8287;51.644;8.494;2023-06-26T11:05:23;9.55;;;5.28;;
16354;SDS011;8287;51.644;8.494;2023-06-26T11:08:04;7.13;;;5.60;;
16354;SDS011;8287;51.644;8.494;2023-06-26T11:10:48;7.85;;;5.93;;
16354;SDS011;8287;51.644;8.494;2023-06-26T11:13:16;7.88;;;5.20;;
16354;SDS011;8287;51.644;8.494;2023-06-26T11:15:44;8.30;;;5.40;;
16354;SDS011;8287;51.644;8.494;2023-06-26T11:18:13;6.50;;;4.72;;
16354;SDS011;8287;51.644;8.494;2023-06-26T11:20:40;9.32;;;4.82;;
16354;SDS011;8287;51.644;8.494;2023-06-26T11:23:07;12.85;;;6.32;;
16354;SDS011;8287;51.644;8.494;2023-06-26T11:25:35;7.65;;;5.03;;
16354;SDS011;8287;51.644;8.494;2023-06-26T11:28:02;8.50;;;4.57;;
16354;SDS011;8287;51.644;8.494;2023-06-26T11:30:30;7.22;;;4.40;;
16354;SDS011;8287;51.644;8.494;2023-06-26T11:33:04;5.38;;;3.97;;
16354;SDS011;8287;51.644;8.494;2023-06-26T11:35:33;5.18;;;3.40;;
16354;SDS011;8287;51.644;8.494;2023-06-26T11:38:00;7.82;;;3.63;;
16354;SDS011;8287;51.644;8.494;2023-06-26T11:40:30;7.72;;;3.35;;
16354;SDS011;8287;51.644;8.494;2023-06-26T11:42:59;6.63;;;3.47;;
16354;SDS011;8287;51.644;8.494;2023-06-26T11:45:28;5.35;;;3.58;;
16354;SDS011;8287;51.644;8.494;2023-06-26T11:47:55;4.72;;;2.85;;
16354;SDS011;8287;51.644;8.494;2023-06-26T11:50:22;3.88;;;2.92;;
16354;SDS011;8287;51.644;8.494;2023-06-26T11:52:54;6.07;;;2.63;;
16354;SDS011;8287;51.644;8.494;2023-06-26T11:55:22;7.93;;;4.15;;
16354;SDS011;8287;51.644;8.494;2023-06-26T11:57:49;3.58;;;2.88;;
16354;SDS011;8287;51.644;8.494;2023-06-26T12:00:16;6.55;;;2.53;;
16354;SDS011;8287;51.644;8.494;2023-06-26T12:02:44;4.18;;;3.03;;
16354;SDS011;8287;51.644;8.494;2023-06-26T12:05:11;4.15;;;2.85;;
16354;SDS011;8287;51.644;8.494;2023-06-26T12:07:38;4.63;;;3.20;;
16354;SDS011;8287;51.644;8.494;2023-06-26T12:10:07;6.45;;;3.28;;
16354;SDS011;8287;51.644;8.494;2023-06-26T12:12:36;5.13;;;3.30;;
16354;SDS011;8287;51.644;8.494;2023-06-26T12:15:03;4.63;;;2.53;;
16354;SDS011;8287;51.644;8.494;2023-06-26T12:17:32;4.78;;;3.30;;
16354;SDS011;8287;51.644;8.494;2023-06-26T12:19:59;8.52;;;3.33;;
16354;SDS011;8287;51.644;8.494;2023-06-26T12:22:33;4.82;;;3.00;;
16354;SDS011;8287;51.644;8.494;2023-06-26T12:25:03;4.22;;;3.30;;
16354;SDS011;8287;51.644;8.494;2023-06-26T12:27:36;4.10;;;2.45;;
16354;SDS011;8287;51.644;8.494;2023-06-26T12:30:03;4.78;;;2.75;;
16354;SDS011;8287;51.644;8.494;2023-06-26T12:32:31;3.53;;;2.40;;
16354;SDS011;8287;51.644;8.494;2023-06-26T12:34:59;3.63;;;2.42;;
16354;SDS011;8287;51.644;8.494;2023-06-26T12:37:26;2.78;;;2.30;;
16354;SDS011;8287;51.644;8.494;2023-06-26T12:39:54;5.30;;;2.10;;
16354;SDS011;8287;51.644;8.494;2023-06-26T12:42:24;7.10;;;2.80;;
16354;SDS011;8287;51.644;8.494;2023-06-26T12:44:52;4.65;;;2.95;;
16354;SDS011;8287;51.644;8.494;2023-06-26T12:47:24;3.95;;;2.50;;
16354;SDS011;8287;51.644;8.494;2023-06-26T12:49:52;4.03;;;2.47;;
16354;SDS011;8287;51.644;8.494;2023-06-26T12:52:20;2.78;;;2.38;;
16354;SDS011;8287;51.644;8.494;2023-06-26T12:54:49;9.32;;;2.50;;
16354;SDS011;8287;51.644;8.494;2023-06-26T12:57:18;5.57;;;2.60;;
16354;SDS011;8287;51.644;8.494;2023-06-26T12:59:46;5.78;;;2.42;;
16354;SDS011;8287;51.644;8.494;2023-06-26T13:02:13;2.92;;;2.05;;
16354;SDS011;8287;51.644;8.494;2023-06-26T13:04:40;3.28;;;2.40;;
16354;SDS011;8287;51.644;8.494;2023-06-26T13:07:09;3.45;;;2.45;;
16354;SDS011;8287;51.644;8.494;2023-06-26T13:09:39;6.35;;;2.58;;
16354;SDS011;8287;51.644;8.494;2023-06-26T13:12:06;4.55;;;2.80;;
16354;SDS011;8287;51.644;8.494;2023-06-26T13:14:33;2.47;;;2.28;;
16354;SDS011;8287;51.644;8.494;2023-06-26T13:17:01;3.95;;;2.17;;
16354;SDS011;8287;51.644;8.494;2023-06-26T13:19:28;4.82;;;2.78;;
16354;SDS011;8287;51.644;8.494;2023-06-26T13:21:54;4.75;;;2.92;;
16354;SDS011;8287;51.644;8.494;2023-06-26T13:24:21;3.15;;;2.40;;
16354;SDS011;8287;51.644;8.494;2023-06-26T13:26:48;6.47;;;2.70;;
16354;SDS011;8287;51.644;8.494;2023-06-26T13:29:15;2.72;;;2.40;;
16354;SDS011;8287;51.644;8.494;2023-06-26T13:31:42;9.15;;;2.45;;
16354;SDS011;8287;51.644;8.494;2023-06-26T13:34:13;2.83;;;2.10;;
16354;SDS011;8287;51.644;8.494;2023-06-26T13:36:47;2.53;;;2.33;;
16354;SDS011;8287;51.644;8.494;2023-06-26T13:39:13;7.20;;;2.45;;
16354;SDS011;8287;51.644;8.494;2023-06-26T13:41:40;4.10;;;2.58;;
16354;SDS011;8287;51.644;8.494;2023-06-26T13:44:06;5.03;;;2.60;;
16354;SDS011;8287;51.644;8.494;2023-06-26T13:46:33;4.10;;;2.55;;
16354;SDS011;8287;51.644;8.494;2023-06-26T13:49:02;2.45;;;2.03;;
16354;SDS011;8287;51.644;8.494;2023-06-26T13:51:30;5.97;;;2.40;;
16354;SDS011;8287;51.644;8.494;2023-06-26T13:53:57;4.05;;;2.60;;
16354;SDS011;8287;51.644;8.494;2023-06-26T13:56:25;3.70;;;2.63;;
16354;SDS011;8287;51.644;8.494;2023-06-26T13:58:55;5.82;;;2.58;;
16354;SDS011;8287;51.644;8.494;2023-06-26T14:01:22;2.85;;;1.95;;
16354;SDS011;8287;51.644;8.494;2023-06-26T14:03:49;2.92;;;2.08;;
16354;SDS011;8287;51.644;8.494;2023-06-26T14:06:15;5.10;;;2.20;;
16354;SDS011;8287;51.644;8.494;2023-06-26T14:08:43;2.65;;;1.90;;
16354;SDS011;8287;51.644;8.494;2023-06-26T14:11:10;4.25;;;2.08;;
16354;SDS011;8287;51.644;8.494;2023-06-26T14:13:36;3.80;;;2.13;;
16354;SDS011;8287;51.644;8.494;2023-06-26T14:16:03;3.40;;;1.70;;
16354;SDS011;8287;51.644;8.494;2023-06-26T14:18:30;2.05;;;1.77;;
16354;SDS011;8287;51.644;8.494;2023-06-26T14:20:57;5.28;;;1.88;;
16354;SDS011;8287;51.644;8.494;2023-06-26T14:23:24;1.92;;;1.48;;
16354;SDS011;8287;51.644;8.494;2023-06-26T14:25:51;4.97;;;1.80;;
16354;SDS011;8287;51.644;8.494;2023-06-26T14:28:18;1.42;;;1.33;;
16354;SDS011;8287;51.644;8.494;2023-06-26T14:30:45;2.58;;;1.40;;
16354;SDS011;8287;51.644;8.494;2023-06-26T14:33:11;2.03;;;1.20;;
16354;SDS011;8287;51.644;8.494;2023-06-26T14:35:38;2.05;;;1.30;;
16354;SDS011;8287;51.644;8.494;2023-06-26T14:38:04;1.65;;;1.17;;
16354;SDS011;8287;51.644;8.494;2023-06-26T14:40:31;3.45;;;1.90;;
16354;SDS011;8287;51.644;8.494;2023-06-26T14:42:59;1.50;;;1.38;;
16354;SDS011;8287;51.644;8.494;2023-06-26T14:45:25;2.83;;;1.17;;
16354;SDS011;8287;51.644;8.494;2023-06-26T14:47:52;2.60;;;1.58;;
16354;SDS011;8287;51.644;8.494;2023-06-26T14:50:18;3.17;;;1.52;;
16354;SDS011;8287;51.644;8.494;2023-06-26T14:52:45;2.53;;;1.20;;
16354;SDS011;8287;51.644;8.494;2023-06-26T14:55:11;4.43;;;1.33;;
16354;SDS011;8287;51.644;8.494;2023-06-26T14:57:38;1.95;;;1.20;;
16354;SDS011;8287;51.644;8.494;2023-06-26T15:00:07;1.85;;;1.23;;
16354;SDS011;8287;51.644;8.494;2023-06-26T15:02:34;1.33;;;1.23;;
16354;SDS011;8287;51.644;8.494;2023-06-26T15:05:01;1.45;;;1.00;;
16354;SDS011;8287;51.644;8.494;2023-06-26T15:07:28;3.15;;;1.27;;